Time;durP1;ratioP1;P1;durP2;ratioP2;P2;SDS_P1;SDS_P2;PMS_P1;PMS_P2;Temp;Humidity;BMP_temperature;BMP_pressure;BME280_temperature;BME280_humidity;BME280_pressure;Samples;Min_cycle;Max_cycle;Signal;HPM_P1;HPM_P2
2023/01/15 00:00:41;;;;;;;6.40;1.65;;;;;;;;;;6168203;23;20107;-78
2023/01/15 00:03:07;;;;;;;2.47;1.33;;;;;;;;;;6167738;23;20028;-78
2023/01/15 00:05:35;;;;;;;11.75;2.50;;;;;;;;;;6139915;23;20048;-78
2023/01/15 00:08:01;;;;;;;7.95;1.80;;;;;;;;;;6140745;23;20578;-80
2023/01/15 00:10:30;;;;;;;12.85;1.48;;;;;;;;;;6140794;23;20049;-78
2023/01/15 00:12:56;;;;;;;15.85;2.47;;;;;;;;;;6140303;23;20029;-78
2023/01/15 00:15:22;;;;;;;14.45;2.67;;;;;;;;;;6170315;23;20075;-78
2023/01/15 00:17:48;;;;;;;6.60;1.48;;;;;;;;;;6166928;23;20029;-79
2023/01/15 00:20:15;;;;;;;11.95;2.33;;;;;;;;;;6170956;23;20084;-78
2023/01/15 00:22:41;;;;;;;10.43;2.53;;;;;;;;;;6145451;23;20025;-78
2023/01/15 00:27:52;;;;;;;8.20;1.88;;;;;;;;;;6172456;23;20028;-78
2023/01/15 00:30:18;;;;;;;14.38;2.20;;;;;;;;;;6147255;23;20021;-78
2023/01/15 00:32:44;;;;;;;15.00;2.90;;;;;;;;;;6171338;23;20458;-78
2023/01/15 00:35:15;;;;;;;8.65;1.73;;;;;;;;;;6146205;23;20017;-78
2023/01/15 00:37:41;;;;;;;5.35;1.70;;;;;;;;;;6146071;23;20343;-78
2023/01/15 00:40:08;;;;;;;10.52;1.65;;;;;;;;;;6145861;23;20039;-78
2023/01/15 00:42:34;;;;;;;9.18;1.80;;;;;;;;;;6171328;23;20044;-78
2023/01/15 00:45:08;;;;;;;8.20;1.67;;;;;;;;;;6146283;23;20120;-78
2023/01/15 00:47:35;;;;;;;4.72;1.50;;;;;;;;;;6147157;23;20024;-78
2023/01/15 00:50:04;;;;;;;7.07;1.67;;;;;;;;;;6146950;23;20017;-78
2023/01/15 00:52:30;;;;;;;14.50;2.53;;;;;;;;;;6148612;23;20048;-79
2023/01/15 00:54:57;;;;;;;11.30;1.23;;;;;;;;;;6173519;23;20103;-78
2023/01/15 00:57:23;;;;;;;5.68;1.63;;;;;;;;;;6165255;23;20437;-79
2023/01/15 00:59:49;;;;;;;7.50;1.15;;;;;;;;;;6165389;23;20051;-79
2023/01/15 01:02:15;;;;;;;8.48;1.45;;;;;;;;;;6151811;23;20013;-78
2023/01/15 01:04:41;;;;;;;6.90;1.27;;;;;;;;;;6140653;23;20016;-79
2023/01/15 01:07:08;;;;;;;10.25;1.98;;;;;;;;;;6141563;23;20388;-79
2023/01/15 01:09:34;;;;;;;10.43;1.90;;;;;;;;;;6142087;23;20017;-77
2023/01/15 01:12:00;;;;;;;23.77;3.42;;;;;;;;;;6142483;23;20029;-77
2023/01/15 01:14:29;;;;;;;13.68;2.95;;;;;;;;;;6167157;23;20017;-79
2023/01/15 01:16:55;;;;;;;15.15;1.85;;;;;;;;;;6167761;23;20024;-79
2023/01/15 01:19:23;;;;;;;7.15;1.25;;;;;;;;;;6124142;23;20024;-78
2023/01/15 01:21:50;;;;;;;8.98;1.70;;;;;;;;;;6153725;23;20028;-79
2023/01/15 01:24:21;;;;;;;10.32;2.00;;;;;;;;;;6127544;23;20021;-79
2023/01/15 01:26:47;;;;;;;12.82;3.72;;;;;;;;;;6147633;23;20529;-79
2023/01/15 01:29:15;;;;;;;15.60;1.73;;;;;;;;;;6147924;23;20027;-79
2023/01/15 01:31:41;;;;;;;12.95;2.92;;;;;;;;;;6172858;23;20013;-79
2023/01/15 01:34:08;;;;;;;17.58;2.33;;;;;;;;;;6148452;23;20087;-79
2023/01/15 01:36:35;;;;;;;12.65;1.55;;;;;;;;;;6146937;23;20009;-79
2023/01/15 01:39:03;;;;;;;13.85;2.00;;;;;;;;;;6147717;23;20459;-80
2023/01/15 01:41:29;;;;;;;12.30;1.80;;;;;;;;;;6173358;23;20021;-78
2023/01/15 01:44:01;;;;;;;8.50;1.50;;;;;;;;;;6149425;23;20039;-79
2023/01/15 01:46:28;;;;;;;13.73;1.70;;;;;;;;;;6148592;23;20017;-79
2023/01/15 01:49:05;;;;;;;6.97;1.50;;;;;;;;;;6172295;23;20432;-79
2023/01/15 01:51:34;;;;;;;8.18;1.60;;;;;;;;;;6146892;23;20017;-79
2023/01/15 01:54:00;;;;;;;11.52;1.92;;;;;;;;;;6146941;23;20021;-79
2023/01/15 01:56:29;;;;;;;5.55;1.38;;;;;;;;;;6146503;23;20436;-79
2023/01/15 01:58:55;;;;;;;12.32;1.85;;;;;;;;;;6171231;23;20325;-79
2023/01/15 02:01:23;;;;;;;11.20;2.30;;;;;;;;;;6169758;23;20099;-79
2023/01/15 02:03:51;;;;;;;16.33;1.83;;;;;;;;;;6145504;23;20025;-79
2023/01/15 02:06:17;;;;;;;10.13;1.60;;;;;;;;;;6114560;23;20419;-79
2023/01/15 02:08:46;;;;;;;16.35;1.92;;;;;;;;;;6113199;23;20360;-79
2023/01/15 02:11:14;;;;;;;7.90;1.98;;;;;;;;;;6087394;23;20014;-79
2023/01/15 02:13:44;;;;;;;6.05;1.58;;;;;;;;;;6114171;23;20021;-79
2023/01/15 02:16:20;;;;;;;10.43;1.73;;;;;;;;;;6113919;23;20014;-79
2023/01/15 02:18:55;;;;;;;10.00;2.00;;;;;;;;;;6114920;23;20060;-79
2023/01/15 02:21:40;;;;;;;10.98;1.40;;;;;;;;;;6112149;23;20108;-79
2023/01/15 02:24:27;;;;;;;9.77;2.13;;;;;;;;;;6115912;23;20025;-79
2023/01/15 02:27:04;;;;;;;11.75;2.30;;;;;;;;;;6115150;23;20025;-79
2023/01/15 02:29:45;;;;;;;12.00;2.05;;;;;;;;;;6117331;23;20044;-78
2023/01/15 02:32:14;;;;;;;9.93;1.92;;;;;;;;;;6117606;23;20018;-78
2023/01/15 02:34:44;;;;;;;6.30;1.73;;;;;;;;;;6117804;23;20013;-79
2023/01/15 02:37:14;;;;;;;11.15;1.67;;;;;;;;;;6134926;23;20024;-79
2023/01/15 02:39:42;;;;;;;13.48;2.80;;;;;;;;;;6161577;23;20665;-78
2023/01/15 02:42:10;;;;;;;17.13;2.40;;;;;;;;;;6160601;23;20029;-79
2023/01/15 02:44:38;;;;;;;16.08;2.38;;;;;;;;;;6169235;23;20017;-79
2023/01/15 02:47:05;;;;;;;10.07;1.95;;;;;;;;;;6168835;23;20017;-77
2023/01/15 02:49:34;;;;;;;12.30;1.88;;;;;;;;;;6184566;23;20801;-79
2023/01/15 02:52:06;;;;;;;11.40;1.88;;;;;;;;;;6147674;23;20413;-79
2023/01/15 02:54:59;;;;;;;4.93;1.70;;;;;;;;;;6146435;23;20017;-78
2023/01/15 02:57:35;;;;;;;14.02;1.75;;;;;;;;;;6125317;23;20009;-79
2023/01/15 03:00:04;;;;;;;10.55;1.40;;;;;;;;;;6175356;23;20028;-79
2023/01/15 03:02:33;;;;;;;8.27;1.67;;;;;;;;;;6174847;23;20041;-79
2023/01/15 03:05:08;;;;;;;8.15;1.70;;;;;;;;;;6152797;23;20037;-79
2023/01/15 03:07:43;;;;;;;13.00;1.95;;;;;;;;;;6174850;23;20021;-80
2023/01/15 03:10:10;;;;;;;18.95;2.53;;;;;;;;;;6172392;23;20053;-80
2023/01/15 03:13:01;;;;;;;10.88;2.15;;;;;;;;;;6171255;23;20017;-79
2023/01/15 03:18:12;;;;;;;13.73;1.90;;;;;;;;;;6173660;23;20016;-79
2023/01/15 03:20:45;;;;;;;9.18;1.98;;;;;;;;;;6172368;23;20405;-79
2023/01/15 03:23:16;;;;;;;20.85;2.78;;;;;;;;;;6147004;23;20471;-80
2023/01/15 03:25:50;;;;;;;4.70;1.10;;;;;;;;;;6146046;23;20021;-79
2023/01/15 03:28:22;;;;;;;11.15;1.98;;;;;;;;;;6147412;23;20017;-79
2023/01/15 03:30:50;;;;;;;10.13;1.90;;;;;;;;;;6172008;23;20013;-79
2023/01/15 03:33:25;;;;;;;12.90;2.25;;;;;;;;;;6148490;23;20024;-79
2023/01/15 03:35:57;;;;;;;11.80;1.55;;;;;;;;;;6147305;23;20020;-81
2023/01/15 03:38:24;;;;;;;11.73;2.25;;;;;;;;;;6147184;23;20017;-79
2023/01/15 03:40:57;;;;;;;7.25;1.48;;;;;;;;;;6147683;23;20057;-79
2023/01/15 03:46:29;;;;;;;12.65;2.13;;;;;;;;;;6151076;23;20031;-80
2023/01/15 03:48:59;;;;;;;12.27;1.77;;;;;;;;;;6146150;23;20620;-80
2023/01/15 03:51:33;;;;;;;15.23;2.40;;;;;;;;;;6148574;23;20013;-80
2023/01/15 03:54:05;;;;;;;17.52;2.72;;;;;;;;;;6150518;23;20016;-81
2023/01/15 03:56:44;;;;;;;9.85;1.98;;;;;;;;;;6127119;23;20024;-81
2023/01/15 03:59:13;;;;;;;11.05;2.17;;;;;;;;;;6156069;23;20048;-80
2023/01/15 04:01:41;;;;;;;14.40;2.85;;;;;;;;;;6178332;23;20043;-81
2023/01/15 04:04:08;;;;;;;9.43;2.45;;;;;;;;;;6151643;23;20035;-80
2023/01/15 04:06:38;;;;;;;10.77;1.73;;;;;;;;;;6146800;23;20017;-80
2023/01/15 04:09:08;;;;;;;18.90;2.90;;;;;;;;;;6146458;23;20021;-80
2023/01/15 04:11:34;;;;;;;13.05;2.00;;;;;;;;;;6146471;23;20304;-80
2023/01/15 04:14:00;;;;;;;7.15;1.65;;;;;;;;;;6146208;23;20024;-80
2023/01/15 04:16:28;;;;;;;15.95;1.95;;;;;;;;;;6146753;23;20439;-80
2023/01/15 04:18:57;;;;;;;8.30;1.90;;;;;;;;;;6146552;23;20020;-81
2023/01/15 04:21:25;;;;;;;10.35;2.28;;;;;;;;;;6122686;23;20110;-80
2023/01/15 04:23:54;;;;;;;13.27;2.42;;;;;;;;;;6147696;23;20456;-80
2023/01/15 04:26:20;;;;;;;8.95;2.10;;;;;;;;;;6148259;23;20119;-79
2023/01/15 04:28:49;;;;;;;12.13;1.75;;;;;;;;;;6149398;23;20024;-80
2023/01/15 04:31:15;;;;;;;9.90;1.70;;;;;;;;;;6154147;23;20000;-79
2023/01/15 04:33:42;;;;;;;9.40;1.85;;;;;;;;;;6170745;23;20116;-80
2023/01/15 04:36:08;;;;;;;10.63;1.88;;;;;;;;;;6170276;23;20029;-79
2023/01/15 04:38:36;;;;;;;6.05;2.30;;;;;;;;;;6122097;23;20028;-79
2023/01/15 04:44:07;;;;;;;10.93;1.90;;;;;;;;;;6171794;23;20374;-80
2023/01/15 04:46:38;;;;;;;13.45;1.85;;;;;;;;;;6174010;23;20518;-80
2023/01/15 04:49:10;;;;;;;14.80;2.33;;;;;;;;;;6152249;23;20396;-79
2023/01/15 04:51:38;;;;;;;16.80;2.58;;;;;;;;;;6180938;23;20017;-80
2023/01/15 04:54:23;;;;;;;;;;;;;;;;;;;;;
2023/01/15 04:56:55;;;;;;;17.60;2.45;;;;;;;;;;6175259;23;20071;-80
2023/01/15 04:59:25;;;;;;;14.85;2.70;;;;;;;;;;6150976;23;20181;-80
2023/01/15 05:01:52;;;;;;;14.65;2.63;;;;;;;;;;6150982;23;20021;-80
2023/01/15 05:04:18;;;;;;;9.02;2.00;;;;;;;;;;6151505;23;20400;-80
2023/01/15 05:06:46;;;;;;;11.13;1.73;;;;;;;;;;6151509;23;20418;-81
2023/01/15 05:09:13;;;;;;;11.77;2.13;;;;;;;;;;6150740;23;20040;-81
2023/01/15 05:11:39;;;;;;;15.57;2.20;;;;;;;;;;6149961;23;20013;-78
2023/01/15 05:14:06;;;;;;;16.58;2.38;;;;;;;;;;6174592;23;20016;-78
2023/01/15 05:16:45;;;;;;;;;;;;;;;;;;;;;
2023/01/15 05:19:21;;;;;;;8.65;1.73;;;;;;;;;;6174320;23;20016;-78
2023/01/15 05:21:50;;;;;;;9.80;2.33;;;;;;;;;;6149538;23;20462;-79
2023/01/15 05:24:17;;;;;;;13.25;2.20;;;;;;;;;;6147846;23;20020;-80
2023/01/15 05:30:06;;;;;;;9.75;1.52;;;;;;;;;;6171750;23;20021;-80
2023/01/15 05:32:35;;;;;;;10.45;1.65;;;;;;;;;;6177239;23;20016;-79
2023/01/15 05:35:04;;;;;;;7.93;1.73;;;;;;;;;;6151956;23;20032;-79
2023/01/15 05:37:31;;;;;;;13.88;1.90;;;;;;;;;;6176705;23;20017;-79
2023/01/15 05:40:09;;;;;;;12.10;2.75;;;;;;;;;;6150390;23;20071;-81
2023/01/15 05:42:35;;;;;;;8.25;1.80;;;;;;;;;;6152259;23;20337;-81
2023/01/15 05:45:20;;;;;;;9.60;1.52;;;;;;;;;;6155357;23;20464;-80
2023/01/15 05:47:52;;;;;;;12.30;2.08;;;;;;;;;;6153550;23;20035;-81
2023/01/15 05:50:27;;;;;;;20.75;2.08;;;;;;;;;;6155374;23;20016;-81
2023/01/15 05:53:02;;;;;;;11.50;1.98;;;;;;;;;;6155829;23;20261;-81
2023/01/15 05:55:28;;;;;;;12.30;1.88;;;;;;;;;;6129451;23;20024;-80
2023/01/15 05:57:57;;;;;;;15.23;3.08;;;;;;;;;;6153706;23;20079;-80
2023/01/15 06:00:26;;;;;;;5.40;1.75;;;;;;;;;;6151720;23;20021;-80
2023/01/15 06:02:54;;;;;;;4.13;1.20;;;;;;;;;;6153279;23;20025;-81
2023/01/15 06:05:23;;;;;;;5.30;1.05;;;;;;;;;;6152551;23;20025;-80
2023/01/15 06:07:52;;;;;;;8.50;1.50;;;;;;;;;;6167075;23;20457;-81
2023/01/15 06:10:18;;;;;;;8.98;1.65;;;;;;;;;;6166892;23;20124;-81
2023/01/15 06:12:47;;;;;;;17.85;2.67;;;;;;;;;;6168480;23;20319;-81
2023/01/15 06:15:31;;;;;;;6.20;2.03;;;;;;;;;;6176759;23;20061;-80
2023/01/15 06:17:57;;;;;;;20.27;1.98;;;;;;;;;;6154017;23;20028;-80
2023/01/15 06:20:26;;;;;;;11.15;2.03;;;;;;;;;;6159727;23;20323;-80
2023/01/15 06:22:52;;;;;;;7.50;1.40;;;;;;;;;;6153732;23;20045;-80
2023/01/15 06:25:18;;;;;;;9.23;1.58;;;;;;;;;;6153520;23;20031;-80
2023/01/15 06:27:45;;;;;;;9.80;2.38;;;;;;;;;;6159096;23;20023;-81
2023/01/15 06:30:12;;;;;;;6.82;1.70;;;;;;;;;;6154924;23;20017;-81
2023/01/15 06:32:41;;;;;;;5.32;1.10;;;;;;;;;;6149201;23;20091;-80
2023/01/15 06:35:13;;;;;;;16.23;2.40;;;;;;;;;;6148874;23;20028;-82
2023/01/15 06:37:42;;;;;;;10.75;1.90;;;;;;;;;;6127557;23;20017;-80
2023/01/15 06:40:11;;;;;;;5.35;1.13;;;;;;;;;;6149348;23;20333;-80
2023/01/15 06:48:12;;;;;;;4.78;1.35;;;;;;;;;;6176163;23;20091;-81
2023/01/15 06:50:38;;;;;;;7.57;1.17;;;;;;;;;;6176271;23;20021;-81
2023/01/15 06:53:13;;;;;;;12.60;2.45;;;;;;;;;;6150636;23;20325;-83
2023/01/15 06:56:00;;;;;;;;;;;;;;;;;;;;;
2023/01/15 06:58:43;;;;;;;6.38;1.52;;;;;;;;;;6178920;23;20047;-81
2023/01/15 07:01:15;;;;;;;6.40;1.10;;;;;;;;;;6156722;23;20075;-80
2023/01/15 07:03:53;;;;;;;10.68;1.67;;;;;;;;;;6157245;23;20384;-82
2023/01/15 07:06:22;;;;;;;5.88;1.13;;;;;;;;;;6181998;23;20040;-81
2023/01/15 07:08:54;;;;;;;13.82;2.03;;;;;;;;;;6157684;23;20021;-80
2023/01/15 07:11:23;;;;;;;10.25;1.52;;;;;;;;;;6156380;23;20017;-81
2023/01/15 08:41:08;;;;;;;8.30;1.48;;;;;;;;;;6217339;22;20080;-85
2023/01/15 08:43:34;;;;;;;9.60;2.13;;;;;;;;;;6198444;22;20110;-84
2023/01/15 08:46:01;;;;;;;11.73;1.75;;;;;;;;;;6200493;22;20241;-75
2023/01/15 08:48:32;;;;;;;5.18;1.10;;;;;;;;;;6204463;22;20028;-74
2023/01/15 08:50:58;;;;;;;9.52;1.88;;;;;;;;;;6179626;22;20691;-74
2023/01/15 08:53:25;;;;;;;5.43;1.58;;;;;;;;;;6206839;22;20043;-74
2023/01/15 08:55:51;;;;;;;3.10;1.20;;;;;;;;;;6230544;22;20322;-74
2023/01/15 08:58:17;;;;;;;6.50;1.80;;;;;;;;;;6210855;23;20370;-74
2023/01/15 09:00:43;;;;;;;9.35;1.88;;;;;;;;;;6251787;22;20052;-74
2023/01/15 09:03:09;;;;;;;10.95;1.95;;;;;;;;;;6229885;22;20043;-74
2023/01/15 09:05:36;;;;;;;5.65;1.30;;;;;;;;;;6227423;22;20031;-74
2023/01/15 09:08:03;;;;;;;5.82;1.50;;;;;;;;;;6231403;22;20038;-74
2023/01/15 09:10:30;;;;;;;7.80;1.00;;;;;;;;;;6238833;22;20031;-74
2023/01/15 09:12:58;;;;;;;4.90;1.42;;;;;;;;;;6242457;22;20099;-75
2023/01/15 09:15:24;;;;;;;6.35;1.77;;;;;;;;;;6244744;22;20038;-74
2023/01/15 09:17:50;;;;;;;3.95;1.60;;;;;;;;;;6257056;22;20019;-74
2023/01/15 09:20:16;;;;;;;6.15;1.48;;;;;;;;;;6257470;22;20054;-75
2023/01/15 09:22:42;;;;;;;6.72;1.98;;;;;;;;;;6233862;22;20047;-75
2023/01/15 09:25:09;;;;;;;7.97;2.10;;;;;;;;;;6232493;22;20116;-74
2023/01/15 09:27:36;;;;;;;15.70;2.78;;;;;;;;;;6262167;22;20015;-75
2023/01/15 09:30:03;;;;;;;6.65;1.20;;;;;;;;;;6233264;22;20015;-74
2023/01/15 09:32:29;;;;;;;4.97;1.15;;;;;;;;;;6207797;22;20092;-74
2023/01/15 09:34:55;;;;;;;11.48;1.75;;;;;;;;;;6205529;22;20026;-75
2023/01/15 09:37:21;;;;;;;7.95;1.70;;;;;;;;;;6206825;22;20090;-74
2023/01/15 09:39:48;;;;;;;8.13;1.35;;;;;;;;;;6231086;22;20024;-75
2023/01/15 09:42:23;;;;;;;11.18;1.73;;;;;;;;;;6207727;22;20015;-73
2023/01/15 09:44:49;;;;;;;9.38;1.80;;;;;;;;;;6208545;22;20019;-74
2023/01/15 09:47:37;;;;;;;5.68;1.20;;;;;;;;;;6232367;22;20595;-75
2023/01/15 09:50:16;;;;;;;5.57;1.25;;;;;;;;;;6228166;23;20538;-74
2023/01/15 09:52:54;;;;;;;9.20;1.65;;;;;;;;;;6229562;23;20417;-75
2023/01/15 09:55:20;;;;;;;8.95;1.63;;;;;;;;;;6226871;23;20012;-74
2023/01/15 09:57:50;;;;;;;13.65;2.80;;;;;;;;;;6198166;23;20345;-74
2023/01/15 10:00:20;;;;;;;13.25;2.53;;;;;;;;;;6176989;23;20020;-74
2023/01/15 10:02:50;;;;;;;10.88;1.77;;;;;;;;;;6201487;23;20118;-73
2023/01/15 10:05:22;;;;;;;7.25;2.15;;;;;;;;;;6201360;23;20519;-75
2023/01/15 10:08:00;;;;;;;8.23;1.98;;;;;;;;;;6176644;23;20456;-75
2023/01/15 10:10:32;;;;;;;8.43;1.55;;;;;;;;;;6197468;23;20561;-75
2023/01/15 10:13:02;;;;;;;7.72;1.25;;;;;;;;;;6225422;23;20143;-75
2023/01/15 10:15:31;;;;;;;6.35;1.48;;;;;;;;;;6177847;23;20020;-74
2023/01/15 10:17:58;;;;;;;6.00;1.63;;;;;;;;;;6176624;23;20016;-74
2023/01/15 10:20:39;;;;;;;6.38;1.42;;;;;;;;;;6227513;23;20734;-74
2023/01/15 10:23:14;;;;;;;10.65;1.52;;;;;;;;;;6227570;23;20110;-75
2023/01/15 10:26:02;;;;;;;20.50;2.38;;;;;;;;;;6203636;23;20016;-75
2023/01/15 10:28:30;;;;;;;8.75;1.65;;;;;;;;;;6226649;23;20107;-75
2023/01/15 10:31:00;;;;;;;8.40;1.50;;;;;;;;;;6227580;23;20330;-75
2023/01/15 10:33:29;;;;;;;8.80;1.42;;;;;;;;;;6228199;23;20016;-75
2023/01/15 10:35:59;;;;;;;7.22;1.58;;;;;;;;;;6227767;23;20074;-75
2023/01/15 10:38:32;;;;;;;4.30;1.30;;;;;;;;;;6231432;23;20048;-75
2023/01/15 10:41:04;;;;;;;3.67;1.20;;;;;;;;;;6201282;23;20755;-75
2023/01/15 10:43:46;;;;;;;6.13;1.75;;;;;;;;;;6178644;23;20100;-75
2023/01/15 10:46:32;;;;;;;10.05;1.95;;;;;;;;;;6206428;23;20032;-75
2023/01/15 10:49:10;;;;;;;6.32;1.58;;;;;;;;;;6208049;23;20036;-77
2023/01/15 10:51:40;;;;;;;4.30;1.92;;;;;;;;;;6210892;23;20028;-77
2023/01/15 10:54:16;;;;;;;11.32;1.73;;;;;;;;;;6245012;23;20035;-78
2023/01/15 10:56:42;;;;;;;8.77;1.77;;;;;;;;;;6243526;23;20019;-77
2023/01/15 10:59:24;;;;;;;11.60;1.90;;;;;;;;;;6209510;23;20215;-79
2023/01/15 11:01:52;;;;;;;6.32;2.33;;;;;;;;;;6257550;23;20012;-77
2023/01/15 11:04:18;;;;;;;8.02;1.92;;;;;;;;;;6207924;23;20016;-77
2023/01/15 11:06:45;;;;;;;8.05;1.50;;;;;;;;;;6185501;23;20079;-79
2023/01/15 11:09:20;;;;;;;8.55;1.63;;;;;;;;;;6234484;23;20012;-76
2023/01/15 11:20:12;;;;;;;7.47;1.60;;;;;;;;;;6232501;23;20035;-77
2023/01/15 11:22:38;;;;;;;7.03;1.35;;;;;;;;;;6179916;23;20050;-77
2023/01/15 11:25:07;;;;;;;11.50;2.03;;;;;;;;;;6182467;23;20020;-77
2023/01/15 11:27:33;;;;;;;5.68;1.55;;;;;;;;;;6206714;23;20020;-77
2023/01/15 11:30:01;;;;;;;10.75;1.75;;;;;;;;;;6232131;23;20113;-78
2023/01/15 11:32:30;;;;;;;9.70;1.73;;;;;;;;;;6232303;23;20016;-78
2023/01/15 11:34:57;;;;;;;11.25;1.80;;;;;;;;;;6180904;23;20015;-76
2023/01/15 11:37:24;;;;;;;4.63;1.25;;;;;;;;;;6231679;23;20016;-76
2023/01/15 11:39:59;;;;;;;16.13;1.95;;;;;;;;;;6233995;23;20035;-77
2023/01/15 11:50:56;;;;;;;5.60;1.17;;;;;;;;;;6233106;23;20084;-76
2023/01/15 11:53:24;;;;;;;7.90;2.03;;;;;;;;;;6233113;23;20012;-77
2023/01/15 11:55:55;;;;;;;3.67;1.30;;;;;;;;;;6234328;23;20083;-78
2023/01/15 11:58:23;;;;;;;6.07;1.70;;;;;;;;;;6185105;23;20026;-78
2023/01/15 12:00:51;;;;;;;13.52;1.98;;;;;;;;;;6203436;23;20033;-77
2023/01/15 12:03:21;;;;;;;5.13;1.38;;;;;;;;;;6193965;23;20432;-77
2023/01/15 12:05:54;;;;;;;16.20;2.60;;;;;;;;;;6232643;23;20019;-78
2023/01/15 12:08:27;;;;;;;20.70;2.30;;;;;;;;;;6235235;23;20053;-78
2023/01/15 12:11:03;;;;;;;8.77;2.25;;;;;;;;;;6232763;23;20016;-78
2023/01/15 12:13:32;;;;;;;16.55;2.83;;;;;;;;;;6182574;23;20016;-79
2023/01/15 12:16:17;;;;;;;14.27;2.50;;;;;;;;;;6232055;23;20031;-80
2023/01/15 12:18:55;;;;;;;8.35;1.75;;;;;;;;;;6207611;23;20062;-80
2023/01/15 12:21:28;;;;;;;14.90;2.85;;;;;;;;;;6188161;23;20020;-80
2023/01/15 12:24:12;;;;;;;17.23;3.22;;;;;;;;;;6239972;23;20632;-81
2023/01/15 12:26:57;;;;;;;11.30;1.92;;;;;;;;;;6240654;23;20024;-81
2023/01/15 12:29:26;;;;;;;18.50;2.38;;;;;;;;;;6241464;23;20008;-82
2023/01/15 12:31:59;;;;;;;24.13;2.78;;;;;;;;;;6216654;23;20059;-79
2023/01/15 12:34:27;;;;;;;9.27;2.35;;;;;;;;;;6221209;23;20094;-79
2023/01/15 12:36:54;;;;;;;8.13;1.27;;;;;;;;;;6197851;23;20044;-79
2023/01/15 12:39:22;;;;;;;8.18;1.33;;;;;;;;;;6221074;23;20020;-79
2023/01/15 12:45:03;;;;;;;4.50;1.55;;;;;;;;;;6257156;23;20019;-78
2023/01/15 12:47:31;;;;;;;1.70;0.70;;;;;;;;;;6206258;23;20039;-77
2023/01/15 12:50:13;;;;;;;1.77;0.85;;;;;;;;;;6195873;23;20465;-79
2023/01/15 12:52:42;;;;;;;1.30;0.47;;;;;;;;;;6234360;23;20099;-79
2023/01/15 12:55:14;;;;;;;6.28;0.85;;;;;;;;;;6236055;23;20253;-80
2023/01/15 12:57:43;;;;;;;5.97;0.98;;;;;;;;;;6237466;23;20016;-81
2023/01/15 13:00:09;;;;;;;8.35;1.42;;;;;;;;;;6189123;23;20075;-79
2023/01/15 13:02:55;;;;;;;2.13;0.77;;;;;;;;;;6235437;23;20012;-79
2023/01/15 13:05:26;;;;;;;3.30;0.60;;;;;;;;;;6189623;23;20747;-79
2023/01/15 13:07:55;;;;;;;5.57;1.00;;;;;;;;;;6184097;23;20024;-79
2023/01/15 13:10:26;;;;;;;7.40;1.48;;;;;;;;;;6185780;23;20499;-79
2023/01/15 13:12:59;;;;;;;3.08;1.00;;;;;;;;;;6236398;23;20099;-78
2023/01/15 13:15:27;;;;;;;8.18;1.55;;;;;;;;;;6187759;23;20043;-79
2023/01/15 13:18:11;;;;;;;3.55;0.90;;;;;;;;;;6188170;23;20016;-79
2023/01/15 13:20:57;;;;;;;6.93;1.48;;;;;;;;;;6208284;23;20020;-81
2023/01/15 13:23:30;;;;;;;6.70;1.20;;;;;;;;;;6199901;23;20020;-81
2023/01/15 13:26:15;;;;;;;3.38;1.00;;;;;;;;;;6237720;23;20020;-81
2023/01/15 13:28:50;;;;;;;7.82;1.40;;;;;;;;;;6188407;23;20020;-80
2023/01/15 13:31:34;;;;;;;9.93;2.58;;;;;;;;;;6207955;23;20020;-79
2023/01/15 13:34:03;;;;;;;14.55;2.67;;;;;;;;;;6185853;23;20016;-78
2023/01/15 13:36:39;;;;;;;8.18;1.55;;;;;;;;;;6205353;23;20580;-78
2023/01/15 13:39:07;;;;;;;14.27;1.50;;;;;;;;;;6180085;23;20020;-78
2023/01/15 13:44:23;;;;;;;4.07;1.02;;;;;;;;;;6234925;23;20032;-77
2023/01/15 13:46:59;;;;;;;5.50;1.38;;;;;;;;;;6234813;23;20020;-78
2023/01/15 13:49:30;;;;;;;16.02;1.40;;;;;;;;;;6235660;23;20051;-77
2023/01/15 13:52:02;;;;;;;5.57;1.42;;;;;;;;;;6235149;23;20023;-79
2023/01/15 13:54:30;;;;;;;11.65;1.73;;;;;;;;;;6185487;23;20523;-78
2023/01/15 13:57:06;;;;;;;14.27;1.80;;;;;;;;;;6206597;23;20012;-78
2023/01/15 13:59:38;;;;;;;9.55;1.75;;;;;;;;;;6184874;23;20031;-78
2023/01/15 14:02:13;;;;;;;7.93;1.52;;;;;;;;;;6183765;23;20020;-78
2023/01/15 14:04:39;;;;;;;5.28;2.03;;;;;;;;;;6184660;23;20052;-78
2023/01/15 14:07:17;;;;;;;10.38;1.50;;;;;;;;;;6237203;23;20791;-77
2023/01/15 14:09:43;;;;;;;5.10;0.73;;;;;;;;;;6239411;23;20016;-77
2023/01/15 14:12:19;;;;;;;1.92;0.50;;;;;;;;;;6240909;23;20023;-78
2023/01/15 14:14:48;;;;;;;1.40;0.60;;;;;;;;;;6190158;23;20016;-78
2023/01/15 14:17:26;;;;;;;5.28;1.10;;;;;;;;;;6195876;22;20016;-79
2023/01/15 14:19:58;;;;;;;6.35;1.00;;;;;;;;;;6199807;23;20023;-77
2023/01/15 14:22:43;;;;;;;7.75;1.35;;;;;;;;;;6245470;23;20055;-79
2023/01/15 14:25:18;;;;;;;3.55;1.13;;;;;;;;;;6251451;23;20058;-79
2023/01/15 14:28:03;;;;;;;6.78;1.30;;;;;;;;;;6249625;23;20057;-80
2023/01/15 14:30:48;;;;;;;4.78;0.88;;;;;;;;;;6234470;23;20043;-79
2023/01/15 14:33:27;;;;;;;7.40;1.50;;;;;;;;;;6181090;23;20019;-79
2023/01/15 14:35:53;;;;;;;4.30;1.25;;;;;;;;;;6182893;23;20016;-78
2023/01/15 14:38:21;;;;;;;7.95;1.15;;;;;;;;;;6182845;23;20027;-79
2023/01/15 14:40:58;;;;;;;8.93;1.27;;;;;;;;;;6183039;23;20245;-77
2023/01/15 14:43:25;;;;;;;4.63;0.98;;;;;;;;;;6201401;23;20084;-78
2023/01/15 14:45:52;;;;;;;7.25;1.38;;;;;;;;;;6234055;23;20023;-78
2023/01/15 14:48:27;;;;;;;10.45;1.55;;;;;;;;;;6233353;22;20016;-77
2023/01/15 14:50:54;;;;;;;9.77;1.58;;;;;;;;;;6207160;23;20028;-78
2023/01/15 14:53:27;;;;;;;9.35;1.63;;;;;;;;;;6182518;23;20047;-79
2023/01/15 14:55:53;;;;;;;12.07;1.77;;;;;;;;;;6230687;23;20027;-77
2023/01/15 14:58:39;;;;;;;4.20;1.52;;;;;;;;;;6203746;23;20115;-79
2023/01/15 15:01:25;;;;;;;11.38;2.28;;;;;;;;;;6198650;23;20102;-77
2023/01/15 15:04:00;;;;;;;11.82;2.08;;;;;;;;;;6201183;23;20091;-78
2023/01/15 15:06:26;;;;;;;9.88;2.08;;;;;;;;;;6201325;23;20023;-78
2023/01/15 15:08:55;;;;;;;13.57;2.92;;;;;;;;;;6200861;23;20016;-79
2023/01/15 15:14:10;;;;;;;18.33;3.22;;;;;;;;;;6227628;23;20418;-79
2023/01/15 15:16:40;;;;;;;10.98;2.22;;;;;;;;;;6193109;23;20433;-78
2023/01/15 15:19:11;;;;;;;16.70;2.45;;;;;;;;;;6171824;23;20066;-78
2023/01/15 15:21:39;;;;;;;22.77;4.00;;;;;;;;;;6199741;23;20051;-78
2023/01/15 15:24:21;;;;;;;16.38;2.13;;;;;;;;;;6225696;23;20039;-78
2023/01/15 15:26:49;;;;;;;19.38;2.95;;;;;;;;;;6198509;23;20031;-79
2023/01/15 15:29:17;;;;;;;12.27;3.10;;;;;;;;;;6227658;23;20088;-78
2023/01/15 15:31:46;;;;;;;15.77;2.40;;;;;;;;;;6225708;23;20016;-79
2023/01/15 15:34:25;;;;;;;11.25;2.47;;;;;;;;;;6198956;23;20100;-78
2023/01/15 15:36:51;;;;;;;18.45;2.58;;;;;;;;;;6197857;23;20015;-78
2023/01/15 15:39:41;;;;;;;12.68;2.20;;;;;;;;;;6226617;23;20025;-77
2023/01/15 15:50:30;;;;;;;13.68;2.72;;;;;;;;;;6230045;23;20028;-77
2023/01/15 15:52:57;;;;;;;18.02;2.22;;;;;;;;;;6234136;23;20068;-78
2023/01/15 15:55:25;;;;;;;13.40;2.67;;;;;;;;;;6231268;23;20012;-78
2023/01/15 15:57:57;;;;;;;15.20;2.70;;;;;;;;;;6227061;23;20012;-77
2023/01/15 16:00:27;;;;;;;22.33;3.85;;;;;;;;;;6176561;23;20225;-77
2023/01/15 16:02:53;;;;;;;13.55;2.08;;;;;;;;;;6226803;23;20078;-77
2023/01/15 16:05:19;;;;;;;10.63;2.38;;;;;;;;;;6223486;23;20016;-77
2023/01/15 16:07:46;;;;;;;9.93;2.08;;;;;;;;;;6226253;23;20008;-77
2023/01/15 16:10:12;;;;;;;19.77;3.90;;;;;;;;;;6251503;22;20035;-78
2023/01/15 16:12:49;;;;;;;17.23;2.67;;;;;;;;;;6175490;23;20371;-78
2023/01/15 16:15:16;;;;;;;20.65;3.10;;;;;;;;;;6221401;23;20024;-77
2023/01/15 16:17:42;;;;;;;15.90;4.00;;;;;;;;;;6223916;22;20115;-76
2023/01/15 16:20:12;;;;;;;18.52;2.97;;;;;;;;;;6174881;23;20093;-76
2023/01/15 16:22:43;;;;;;;18.70;2.83;;;;;;;;;;6224400;23;20396;-76
2023/01/15 16:25:27;;;;;;;15.80;2.25;;;;;;;;;;6227462;23;20026;-78
2023/01/15 16:27:53;;;;;;;17.50;3.05;;;;;;;;;;6224669;23;20027;-77
2023/01/15 16:30:20;;;;;;;15.23;2.67;;;;;;;;;;6225321;23;20012;-77
2023/01/15 16:32:47;;;;;;;13.95;2.47;;;;;;;;;;6224717;23;20019;-76
2023/01/15 16:35:16;;;;;;;14.65;2.75;;;;;;;;;;6200628;23;20024;-76
2023/01/15 16:37:42;;;;;;;12.02;2.47;;;;;;;;;;6225506;23;20098;-77
2023/01/15 16:40:15;;;;;;;12.23;2.30;;;;;;;;;;6227147;23;20016;-77
2023/01/15 16:42:44;;;;;;;12.27;2.17;;;;;;;;;;6200593;23;20074;-77
2023/01/15 16:45:26;;;;;;;9.30;2.60;;;;;;;;;;6228906;23;20022;-77
2023/01/15 16:48:17;;;;;;;12.48;2.45;;;;;;;;;;6229586;23;20016;-77
2023/01/15 16:50:44;;;;;;;10.20;2.03;;;;;;;;;;6201822;23;20094;-77
2023/01/15 16:53:30;;;;;;;8.77;2.20;;;;;;;;;;6203446;23;20464;-76
2023/01/15 16:55:58;;;;;;;13.40;2.58;;;;;;;;;;6201323;23;20020;-77
2023/01/15 16:58:32;;;;;;;6.65;2.13;;;;;;;;;;6202569;23;20024;-77
2023/01/15 17:01:00;;;;;;;15.30;1.75;;;;;;;;;;6227200;23;20028;-77
2023/01/15 17:03:27;;;;;;;13.63;1.95;;;;;;;;;;6175130;23;20625;-77
2023/01/15 17:05:58;;;;;;;14.30;2.38;;;;;;;;;;6203124;23;20077;-77
2023/01/15 17:08:38;;;;;;;16.05;2.60;;;;;;;;;;6201589;23;20016;-77
2023/01/15 17:11:05;;;;;;;9.57;2.10;;;;;;;;;;6202037;23;20022;-77
2023/01/15 17:13:33;;;;;;;14.75;2.53;;;;;;;;;;6176632;23;20058;-77
2023/01/15 17:16:01;;;;;;;11.50;2.83;;;;;;;;;;6202178;23;20016;-77
2023/01/15 17:18:28;;;;;;;11.38;1.90;;;;;;;;;;6178218;23;20023;-77
2023/01/15 17:20:54;;;;;;;13.40;2.10;;;;;;;;;;6175557;23;20074;-77